sensor_id;sensor_type;location;lat;lon;timestamp;P1;durP1;ratioP1;P2;durP2;ratioP2
74487;SDS011;63019;51.080;13.642;2023-08-20T00:00:08;6.40;;;4.50;;
74487;SDS011;63019;51.080;13.642;2023-08-20T00:01:12;9.88;;;4.80;;
74487;SDS011;63019;51.080;13.642;2023-08-20T00:02:16;8.77;;;4.65;;
74487;SDS011;63019;51.080;13.642;2023-08-20T00:03:23;6.80;;;4.13;;
74487;SDS011;63019;51.080;13.642;2023-08-20T00:04:26;10.15;;;4.90;;
74487;SDS011;63019;51.080;13.642;2023-08-20T00:05:32;9.63;;;4.47;;
74487;SDS011;63019;51.080;13.642;2023-08-20T00:06:34;14.73;;;5.18;;
74487;SDS011;63019;51.080;13.642;2023-08-20T00:07:36;8.07;;;4.65;;
74487;SDS011;63019;51.080;13.642;2023-08-20T00:08:38;9.17;;;4.67;;
74487;SDS011;63019;51.080;13.642;2023-08-20T00:09:40;9.18;;;5.13;;
74487;SDS011;63019;51.080;13.642;2023-08-20T00:10:42;8.43;;;4.88;;
74487;SDS011;63019;51.080;13.642;2023-08-20T00:11:44;13.90;;;4.63;;
74487;SDS011;63019;51.080;13.642;2023-08-20T00:12:45;12.75;;;4.38;;
74487;SDS011;63019;51.080;13.642;2023-08-20T00:13:47;11.07;;;4.45;;
74487;SDS011;63019;51.080;13.642;2023-08-20T00:15:57;9.48;;;4.70;;
74487;SDS011;63019;51.080;13.642;2023-08-20T00:16:59;8.27;;;4.80;;
74487;SDS011;63019;51.080;13.642;2023-08-20T00:18:01;10.02;;;4.85;;
74487;SDS011;63019;51.080;13.642;2023-08-20T00:19:04;9.20;;;4.60;;
74487;SDS011;63019;51.080;13.642;2023-08-20T00:20:07;9.80;;;4.80;;
74487;SDS011;63019;51.080;13.642;2023-08-20T00:21:16;10.38;;;4.45;;
74487;SDS011;63019;51.080;13.642;2023-08-20T00:22:18;9.57;;;4.85;;
74487;SDS011;63019;51.080;13.642;2023-08-20T00:23:22;11.13;;;4.30;;
74487;SDS011;63019;51.080;13.642;2023-08-20T00:24:24;11.02;;;4.60;;
74487;SDS011;63019;51.080;13.642;2023-08-20T00:25:27;8.25;;;4.35;;
74487;SDS011;63019;51.080;13.642;2023-08-20T00:26:29;10.25;;;4.65;;
74487;SDS011;63019;51.080;13.642;2023-08-20T00:27:31;8.27;;;4.50;;
74487;SDS011;63019;51.080;13.642;2023-08-20T00:28:34;9.00;;;4.47;;
74487;SDS011;63019;51.080;13.642;2023-08-20T00:29:37;10.13;;;4.50;;
74487;SDS011;63019;51.080;13.642;2023-08-20T00:30:39;6.30;;;4.32;;
74487;SDS011;63019;51.080;13.642;2023-08-20T00:31:41;9.38;;;4.70;;
74487;SDS011;63019;51.080;13.642;2023-08-20T00:32:43;14.43;;;4.82;;
74487;SDS011;63019;51.080;13.642;2023-08-20T00:33:45;9.68;;;4.13;;
74487;SDS011;63019;51.080;13.642;2023-08-20T00:35:01;9.13;;;4.40;;
74487;SDS011;63019;51.080;13.642;2023-08-20T00:36:04;9.23;;;4.55;;
74487;SDS011;63019;51.080;13.642;2023-08-20T00:37:06;9.80;;;4.60;;
74487;SDS011;63019;51.080;13.642;2023-08-20T00:38:08;10.75;;;4.60;;
74487;SDS011;63019;51.080;13.642;2023-08-20T00:39:09;7.43;;;4.70;;
74487;SDS011;63019;51.080;13.642;2023-08-20T00:40:11;11.03;;;4.70;;
74487;SDS011;63019;51.080;13.642;2023-08-20T00:41:13;9.88;;;4.68;;
74487;SDS011;63019;51.080;13.642;2023-08-20T00:42:15;9.00;;;4.90;;
74487;SDS011;63019;51.080;13.642;2023-08-20T00:43:17;8.10;;;4.88;;
74487;SDS011;63019;51.080;13.642;2023-08-20T00:44:19;10.27;;;5.10;;
74487;SDS011;63019;51.080;13.642;2023-08-20T00:45:20;8.20;;;4.70;;
74487;SDS011;63019;51.080;13.642;2023-08-20T00:46:22;8.05;;;4.50;;
74487;SDS011;63019;51.080;13.642;2023-08-20T00:47:24;9.77;;;4.80;;
74487;SDS011;63019;51.080;13.642;2023-08-20T00:48:26;8.85;;;4.63;;
74487;SDS011;63019;51.080;13.642;2023-08-20T00:49:29;8.13;;;4.88;;
74487;SDS011;63019;51.080;13.642;2023-08-20T00:50:31;11.77;;;5.33;;
74487;SDS011;63019;51.080;13.642;2023-08-20T00:51:34;7.43;;;4.63;;
74487;SDS011;63019;51.080;13.642;2023-08-20T00:52:36;6.93;;;5.10;;
74487;SDS011;63019;51.080;13.642;2023-08-20T00:53:38;9.23;;;5.10;;
74487;SDS011;63019;51.080;13.642;2023-08-20T00:54:40;8.10;;;4.88;;
74487;SDS011;63019;51.080;13.642;2023-08-20T00:55:42;10.88;;;4.85;;
74487;SDS011;63019;51.080;13.642;2023-08-20T00:56:45;9.18;;;4.78;;
74487;SDS011;63019;51.080;13.642;2023-08-20T00:57:48;8.25;;;5.07;;
74487;SDS011;63019;51.080;13.642;2023-08-20T00:58:49;11.50;;;5.13;;
74487;SDS011;63019;51.080;13.642;2023-08-20T00:59:51;9.85;;;4.80;;
74487;SDS011;63019;51.080;13.642;2023-08-20T01:00:56;16.13;;;5.17;;
74487;SDS011;63019;51.080;13.642;2023-08-20T01:01:58;8.32;;;4.93;;
74487;SDS011;63019;51.080;13.642;2023-08-20T01:03:00;9.88;;;4.85;;
74487;SDS011;63019;51.080;13.642;2023-08-20T01:04:02;9.52;;;4.70;;
74487;SDS011;63019;51.080;13.642;2023-08-20T01:05:04;9.20;;;4.80;;
74487;SDS011;63019;51.080;13.642;2023-08-20T01:06:23;9.57;;;4.50;;
74487;SDS011;63019;51.080;13.642;2023-08-20T01:11:59;16.40;;;4.90;;
74487;SDS011;63019;51.080;13.642;2023-08-20T01:13:02;7.53;;;4.77;;
74487;SDS011;63019;51.080;13.642;2023-08-20T01:14:15;9.43;;;4.50;;
74487;SDS011;63019;51.080;13.642;2023-08-20T01:15:17;11.65;;;5.03;;
74487;SDS011;63019;51.080;13.642;2023-08-20T01:16:19;8.30;;;4.80;;
74487;SDS011;63019;51.080;13.642;2023-08-20T01:17:21;10.07;;;4.75;;
74487;SDS011;63019;51.080;13.642;2023-08-20T01:18:23;9.43;;;4.88;;
74487;SDS011;63019;51.080;13.642;2023-08-20T01:19:25;8.05;;;5.03;;
74487;SDS011;63019;51.080;13.642;2023-08-20T01:20:30;10.45;;;4.72;;
74487;SDS011;63019;51.080;13.642;2023-08-20T01:21:41;8.32;;;5.13;;
74487;SDS011;63019;51.080;13.642;2023-08-20T01:23:13;8.32;;;4.75;;
74487;SDS011;63019;51.080;13.642;2023-08-20T01:26:34;6.32;;;5.05;;
74487;SDS011;63019;51.080;13.642;2023-08-20T01:29:16;10.52;;;5.38;;
74487;SDS011;63019;51.080;13.642;2023-08-20T01:30:19;12.23;;;5.00;;
74487;SDS011;63019;51.080;13.642;2023-08-20T01:31:22;7.85;;;4.90;;
74487;SDS011;63019;51.080;13.642;2023-08-20T01:32:26;9.38;;;5.03;;
74487;SDS011;63019;51.080;13.642;2023-08-20T01:33:28;10.73;;;4.88;;
74487;SDS011;63019;51.080;13.642;2023-08-20T01:34:31;11.05;;;5.38;;
74487;SDS011;63019;51.080;13.642;2023-08-20T01:35:33;9.98;;;4.88;;
74487;SDS011;63019;51.080;13.642;2023-08-20T01:36:35;8.87;;;4.83;;
74487;SDS011;63019;51.080;13.642;2023-08-20T01:37:37;9.27;;;4.90;;
74487;SDS011;63019;51.080;13.642;2023-08-20T01:38:38;13.13;;;5.03;;
74487;SDS011;63019;51.080;13.642;2023-08-20T01:39:40;10.65;;;5.20;;
74487;SDS011;63019;51.080;13.642;2023-08-20T01:40:42;8.57;;;4.80;;
74487;SDS011;63019;51.080;13.642;2023-08-20T01:41:45;8.18;;;4.53;;
74487;SDS011;63019;51.080;13.642;2023-08-20T01:42:47;10.18;;;5.10;;
74487;SDS011;63019;51.080;13.642;2023-08-20T01:43:49;6.32;;;4.55;;
74487;SDS011;63019;51.080;13.642;2023-08-20T01:44:51;8.57;;;5.00;;
74487;SDS011;63019;51.080;13.642;2023-08-20T01:45:53;8.55;;;5.00;;
74487;SDS011;63019;51.080;13.642;2023-08-20T01:46:55;12.90;;;4.60;;
74487;SDS011;63019;51.080;13.642;2023-08-20T01:47:56;9.70;;;5.13;;
74487;SDS011;63019;51.080;13.642;2023-08-20T01:48:58;6.85;;;4.85;;
74487;SDS011;63019;51.080;13.642;2023-08-20T01:50:00;8.10;;;4.95;;
74487;SDS011;63019;51.080;13.642;2023-08-20T01:51:06;16.70;;;5.35;;
74487;SDS011;63019;51.080;13.642;2023-08-20T01:52:08;9.88;;;4.95;;
74487;SDS011;63019;51.080;13.642;2023-08-20T01:53:09;15.65;;;5.13;;
74487;SDS011;63019;51.080;13.642;2023-08-20T01:54:11;10.32;;;4.55;;
74487;SDS011;63019;51.080;13.642;2023-08-20T01:55:13;12.07;;;5.20;;
74487;SDS011;63019;51.080;13.642;2023-08-20T01:56:15;8.63;;;4.78;;
74487;SDS011;63019;51.080;13.642;2023-08-20T01:57:17;10.57;;;4.90;;
74487;SDS011;63019;51.080;13.642;2023-08-20T01:58:19;6.80;;;4.78;;
74487;SDS011;63019;51.080;13.642;2023-08-20T01:59:21;12.15;;;5.25;;
74487;SDS011;63019;51.080;13.642;2023-08-20T02:00:24;6.90;;;5.00;;
74487;SDS011;63019;51.080;13.642;2023-08-20T02:01:26;8.50;;;4.85;;
74487;SDS011;63019;51.080;13.642;2023-08-20T02:02:28;8.45;;;4.93;;
74487;SDS011;63019;51.080;13.642;2023-08-20T02:03:30;10.18;;;4.70;;
74487;SDS011;63019;51.080;13.642;2023-08-20T02:04:32;9.30;;;4.80;;
74487;SDS011;63019;51.080;13.642;2023-08-20T02:05:34;9.35;;;4.38;;
74487;SDS011;63019;51.080;13.642;2023-08-20T02:06:36;11.10;;;4.55;;
74487;SDS011;63019;51.080;13.642;2023-08-20T02:07:38;10.67;;;4.77;;
74487;SDS011;63019;51.080;13.642;2023-08-20T02:08:40;7.03;;;4.50;;
74487;SDS011;63019;51.080;13.642;2023-08-20T02:09:41;9.85;;;4.78;;
74487;SDS011;63019;51.080;13.642;2023-08-20T02:10:44;6.07;;;4.60;;
74487;SDS011;63019;51.080;13.642;2023-08-20T02:11:45;10.45;;;5.00;;
74487;SDS011;63019;51.080;13.642;2023-08-20T02:12:47;5.75;;;4.30;;
74487;SDS011;63019;51.080;13.642;2023-08-20T02:13:49;7.28;;;4.47;;
74487;SDS011;63019;51.080;13.642;2023-08-20T02:14:51;7.30;;;4.80;;
74487;SDS011;63019;51.080;13.642;2023-08-20T02:16:02;16.13;;;4.20;;
74487;SDS011;63019;51.080;13.642;2023-08-20T02:17:06;8.18;;;4.55;;
74487;SDS011;63019;51.080;13.642;2023-08-20T02:18:08;9.53;;;4.83;;
74487;SDS011;63019;51.080;13.642;2023-08-20T02:19:10;10.27;;;4.80;;
74487;SDS011;63019;51.080;13.642;2023-08-20T02:20:12;8.52;;;4.68;;
74487;SDS011;63019;51.080;13.642;2023-08-20T02:21:14;8.73;;;4.78;;
74487;SDS011;63019;51.080;13.642;2023-08-20T02:22:16;8.85;;;4.57;;
74487;SDS011;63019;51.080;13.642;2023-08-20T02:23:19;7.60;;;4.15;;
74487;SDS011;63019;51.080;13.642;2023-08-20T02:24:21;8.68;;;4.65;;
74487;SDS011;63019;51.080;13.642;2023-08-20T02:25:23;9.00;;;4.60;;
74487;SDS011;63019;51.080;13.642;2023-08-20T02:26:26;9.93;;;4.95;;
74487;SDS011;63019;51.080;13.642;2023-08-20T02:27:27;7.95;;;4.82;;
74487;SDS011;63019;51.080;13.642;2023-08-20T02:28:30;8.97;;;4.33;;
74487;SDS011;63019;51.080;13.642;2023-08-20T02:29:32;10.82;;;5.07;;
74487;SDS011;63019;51.080;13.642;2023-08-20T02:30:38;9.18;;;5.47;;
74487;SDS011;63019;51.080;13.642;2023-08-20T02:31:44;7.88;;;4.75;;
74487;SDS011;63019;51.080;13.642;2023-08-20T02:32:46;6.55;;;4.57;;
74487;SDS011;63019;51.080;13.642;2023-08-20T02:33:48;10.00;;;5.00;;
74487;SDS011;63019;51.080;13.642;2023-08-20T02:34:50;6.75;;;4.93;;
74487;SDS011;63019;51.080;13.642;2023-08-20T02:35:52;9.13;;;4.75;;
74487;SDS011;63019;51.080;13.642;2023-08-20T02:36:54;7.25;;;4.70;;
74487;SDS011;63019;51.080;13.642;2023-08-20T02:37:57;5.55;;;4.50;;
74487;SDS011;63019;51.080;13.642;2023-08-20T02:38:59;10.70;;;4.60;;
74487;SDS011;63019;51.080;13.642;2023-08-20T02:40:01;13.02;;;4.38;;
74487;SDS011;63019;51.080;13.642;2023-08-20T02:41:04;9.10;;;4.22;;
74487;SDS011;63019;51.080;13.642;2023-08-20T02:42:06;10.88;;;4.65;;
74487;SDS011;63019;51.080;13.642;2023-08-20T02:43:08;10.35;;;4.95;;
74487;SDS011;63019;51.080;13.642;2023-08-20T02:44:10;9.05;;;4.13;;
74487;SDS011;63019;51.080;13.642;2023-08-20T02:45:12;7.68;;;4.43;;
74487;SDS011;63019;51.080;13.642;2023-08-20T02:46:14;6.47;;;4.10;;
74487;SDS011;63019;51.080;13.642;2023-08-20T02:47:16;9.40;;;4.40;;
74487;SDS011;63019;51.080;13.642;2023-08-20T02:48:17;7.57;;;4.50;;
74487;SDS011;63019;51.080;13.642;2023-08-20T02:49:20;5.90;;;4.03;;
74487;SDS011;63019;51.080;13.642;2023-08-20T02:50:22;9.40;;;4.47;;
74487;SDS011;63019;51.080;13.642;2023-08-20T02:51:23;7.30;;;3.90;;
74487;SDS011;63019;51.080;13.642;2023-08-20T02:52:25;8.57;;;3.97;;
74487;SDS011;63019;51.080;13.642;2023-08-20T02:53:27;7.88;;;3.95;;
74487;SDS011;63019;51.080;13.642;2023-08-20T02:54:29;5.25;;;3.80;;
74487;SDS011;63019;51.080;13.642;2023-08-20T02:55:33;6.25;;;3.58;;
74487;SDS011;63019;51.080;13.642;2023-08-20T02:56:36;6.75;;;4.60;;
74487;SDS011;63019;51.080;13.642;2023-08-20T02:57:38;5.25;;;4.30;;
74487;SDS011;63019;51.080;13.642;2023-08-20T02:58:40;10.88;;;4.70;;
74487;SDS011;63019;51.080;13.642;2023-08-20T02:59:41;10.60;;;4.40;;
74487;SDS011;63019;51.080;13.642;2023-08-20T03:00:43;11.55;;;3.80;;
74487;SDS011;63019;51.080;13.642;2023-08-20T03:01:46;11.63;;;4.75;;
74487;SDS011;63019;51.080;13.642;2023-08-20T03:02:48;8.50;;;4.85;;
74487;SDS011;63019;51.080;13.642;2023-08-20T03:03:50;10.35;;;4.40;;
74487;SDS011;63019;51.080;13.642;2023-08-20T03:04:52;9.57;;;4.30;;
74487;SDS011;63019;51.080;13.642;2023-08-20T03:05:54;9.60;;;4.25;;
74487;SDS011;63019;51.080;13.642;2023-08-20T03:06:57;10.02;;;4.20;;
74487;SDS011;63019;51.080;13.642;2023-08-20T03:07:59;9.63;;;4.50;;
74487;SDS011;63019;51.080;13.642;2023-08-20T03:09:00;9.27;;;4.10;;
74487;SDS011;63019;51.080;13.642;2023-08-20T03:10:02;10.90;;;5.00;;
74487;SDS011;63019;51.080;13.642;2023-08-20T03:11:04;8.77;;;4.60;;
74487;SDS011;63019;51.080;13.642;2023-08-20T03:12:06;7.80;;;4.65;;
74487;SDS011;63019;51.080;13.642;2023-08-20T03:13:08;6.70;;;4.85;;
74487;SDS011;63019;51.080;13.642;2023-08-20T03:14:10;9.07;;;5.15;;
74487;SDS011;63019;51.080;13.642;2023-08-20T03:15:12;8.82;;;5.15;;
74487;SDS011;63019;51.080;13.642;2023-08-20T03:16:14;8.00;;;4.97;;
74487;SDS011;63019;51.080;13.642;2023-08-20T03:17:16;9.45;;;5.10;;
74487;SDS011;63019;51.080;13.642;2023-08-20T03:18:17;11.15;;;5.15;;
74487;SDS011;63019;51.080;13.642;2023-08-20T03:19:19;9.43;;;5.20;;
74487;SDS011;63019;51.080;13.642;2023-08-20T03:20:21;8.50;;;5.30;;
74487;SDS011;63019;51.080;13.642;2023-08-20T03:21:23;7.65;;;4.80;;
74487;SDS011;63019;51.080;13.642;2023-08-20T03:22:25;9.10;;;5.10;;
74487;SDS011;63019;51.080;13.642;2023-08-20T03:23:29;10.38;;;4.68;;
74487;SDS011;63019;51.080;13.642;2023-08-20T03:24:31;11.77;;;5.30;;
74487;SDS011;63019;51.080;13.642;2023-08-20T03:25:32;7.07;;;4.70;;
74487;SDS011;63019;51.080;13.642;2023-08-20T03:26:34;10.18;;;5.00;;
74487;SDS011;63019;51.080;13.642;2023-08-20T03:27:36;9.02;;;4.95;;
74487;SDS011;63019;51.080;13.642;2023-08-20T03:28:38;10.68;;;4.97;;
74487;SDS011;63019;51.080;13.642;2023-08-20T03:29:40;7.47;;;4.65;;
74487;SDS011;63019;51.080;13.642;2023-08-20T03:30:42;13.63;;;4.60;;
74487;SDS011;63019;51.080;13.642;2023-08-20T03:31:44;7.07;;;4.93;;
74487;SDS011;63019;51.080;13.642;2023-08-20T03:32:45;12.60;;;4.80;;
74487;SDS011;63019;51.080;13.642;2023-08-20T03:33:48;10.57;;;4.25;;
74487;SDS011;63019;51.080;13.642;2023-08-20T03:34:50;8.25;;;4.47;;
74487;SDS011;63019;51.080;13.642;2023-08-20T03:35:52;7.43;;;4.43;;
74487;SDS011;63019;51.080;13.642;2023-08-20T03:36:53;9.23;;;4.50;;
74487;SDS011;63019;51.080;13.642;2023-08-20T03:37:55;10.23;;;4.00;;
74487;SDS011;63019;51.080;13.642;2023-08-20T03:38:57;9.93;;;3.97;;
74487;SDS011;63019;51.080;13.642;2023-08-20T03:39:59;8.23;;;4.10;;
74487;SDS011;63019;51.080;13.642;2023-08-20T03:41:01;8.53;;;4.13;;
74487;SDS011;63019;51.080;13.642;2023-08-20T03:42:03;10.73;;;3.75;;
74487;SDS011;63019;51.080;13.642;2023-08-20T03:43:05;11.70;;;3.60;;
74487;SDS011;63019;51.080;13.642;2023-08-20T03:44:07;10.32;;;4.05;;
74487;SDS011;63019;51.080;13.642;2023-08-20T03:45:08;7.35;;;4.10;;
74487;SDS011;63019;51.080;13.642;2023-08-20T03:46:10;9.40;;;3.97;;
74487;SDS011;63019;51.080;13.642;2023-08-20T03:47:12;10.98;;;4.25;;
74487;SDS011;63019;51.080;13.642;2023-08-20T03:48:14;11.85;;;3.88;;
74487;SDS011;63019;51.080;13.642;2023-08-20T03:49:16;21.00;;;3.30;;
74487;SDS011;63019;51.080;13.642;2023-08-20T03:50:18;9.20;;;3.60;;
74487;SDS011;63019;51.080;13.642;2023-08-20T03:51:20;6.53;;;3.53;;
74487;SDS011;63019;51.080;13.642;2023-08-20T03:52:22;8.13;;;3.47;;
74487;SDS011;63019;51.080;13.642;2023-08-20T03:53:24;9.25;;;3.60;;
74487;SDS011;63019;51.080;13.642;2023-08-20T03:54:26;8.90;;;3.60;;
74487;SDS011;63019;51.080;13.642;2023-08-20T03:55:27;9.55;;;3.70;;
74487;SDS011;63019;51.080;13.642;2023-08-20T03:56:30;8.43;;;3.78;;
74487;SDS011;63019;51.080;13.642;2023-08-20T03:57:32;9.25;;;3.80;;
74487;SDS011;63019;51.080;13.642;2023-08-20T03:58:34;12.35;;;3.55;;
74487;SDS011;63019;51.080;13.642;2023-08-20T03:59:36;11.43;;;3.95;;
74487;SDS011;63019;51.080;13.642;2023-08-20T04:00:38;7.57;;;3.75;;
74487;SDS011;63019;51.080;13.642;2023-08-20T04:01:40;8.87;;;3.87;;
74487;SDS011;63019;51.080;13.642;2023-08-20T04:02:41;7.43;;;4.07;;
74487;SDS011;63019;51.080;13.642;2023-08-20T04:03:45;7.57;;;4.03;;
74487;SDS011;63019;51.080;13.642;2023-08-20T04:04:47;10.40;;;4.10;;
74487;SDS011;63019;51.080;13.642;2023-08-20T04:05:49;7.57;;;3.70;;
74487;SDS011;63019;51.080;13.642;2023-08-20T04:06:52;10.07;;;3.80;;
74487;SDS011;63019;51.080;13.642;2023-08-20T04:07:53;10.15;;;3.72;;
74487;SDS011;63019;51.080;13.642;2023-08-20T04:08:55;7.07;;;3.63;;
74487;SDS011;63019;51.080;13.642;2023-08-20T04:09:57;6.30;;;3.60;;
74487;SDS011;63019;51.080;13.642;2023-08-20T04:10:59;8.00;;;3.55;;
74487;SDS011;63019;51.080;13.642;2023-08-20T04:12:03;9.13;;;3.70;;
74487;SDS011;63019;51.080;13.642;2023-08-20T04:13:05;8.13;;;4.22;;
74487;SDS011;63019;51.080;13.642;2023-08-20T04:14:07;8.20;;;4.00;;
74487;SDS011;63019;51.080;13.642;2023-08-20T04:15:09;11.88;;;4.50;;
74487;SDS011;63019;51.080;13.642;2023-08-20T04:16:11;13.30;;;4.10;;
74487;SDS011;63019;51.080;13.642;2023-08-20T04:17:12;7.43;;;3.70;;
74487;SDS011;63019;51.080;13.642;2023-08-20T04:18:14;10.93;;;4.07;;
74487;SDS011;63019;51.080;13.642;2023-08-20T04:19:16;11.85;;;4.40;;
74487;SDS011;63019;51.080;13.642;2023-08-20T04:20:18;7.78;;;3.67;;
74487;SDS011;63019;51.080;13.642;2023-08-20T04:21:20;12.68;;;4.10;;
74487;SDS011;63019;51.080;13.642;2023-08-20T04:22:21;10.20;;;4.00;;
74487;SDS011;63019;51.080;13.642;2023-08-20T04:23:23;5.80;;;3.60;;
74487;SDS011;63019;51.080;13.642;2023-08-20T04:24:26;11.40;;;4.22;;
74487;SDS011;63019;51.080;13.642;2023-08-20T04:25:27;9.25;;;4.00;;
74487;SDS011;63019;51.080;13.642;2023-08-20T04:26:29;8.88;;;4.22;;
74487;SDS011;63019;51.080;13.642;2023-08-20T04:27:31;9.35;;;3.92;;
74487;SDS011;63019;51.080;13.642;2023-08-20T04:28:33;10.75;;;3.78;;
74487;SDS011;63019;51.080;13.642;2023-08-20T04:29:35;10.57;;;4.15;;
74487;SDS011;63019;51.080;13.642;2023-08-20T04:30:37;9.65;;;3.75;;
74487;SDS011;63019;51.080;13.642;2023-08-20T04:31:39;8.90;;;4.20;;
74487;SDS011;63019;51.080;13.642;2023-08-20T04:32:41;9.80;;;4.03;;
74487;SDS011;63019;51.080;13.642;2023-08-20T04:33:44;8.48;;;4.18;;
74487;SDS011;63019;51.080;13.642;2023-08-20T04:34:47;8.25;;;3.83;;
74487;SDS011;63019;51.080;13.642;2023-08-20T04:35:50;10.05;;;4.65;;
74487;SDS011;63019;51.080;13.642;2023-08-20T04:36:52;8.18;;;4.30;;
74487;SDS011;63019;51.080;13.642;2023-08-20T04:37:54;13.73;;;4.13;;
74487;SDS011;63019;51.080;13.642;2023-08-20T04:38:56;13.38;;;4.10;;
74487;SDS011;63019;51.080;13.642;2023-08-20T04:39:58;7.78;;;3.80;;
74487;SDS011;63019;51.080;13.642;2023-08-20T04:40:59;7.90;;;3.90;;
74487;SDS011;63019;51.080;13.642;2023-08-20T04:42:01;5.88;;;3.70;;
74487;SDS011;63019;51.080;13.642;2023-08-20T04:43:03;7.50;;;3.80;;
74487;SDS011;63019;51.080;13.642;2023-08-20T04:44:05;12.55;;;3.85;;
74487;SDS011;63019;51.080;13.642;2023-08-20T04:45:07;8.30;;;3.80;;
74487;SDS011;63019;51.080;13.642;2023-08-20T04:46:09;12.65;;;4.20;;
74487;SDS011;63019;51.080;13.642;2023-08-20T04:47:12;9.55;;;3.90;;
74487;SDS011;63019;51.080;13.642;2023-08-20T04:48:16;8.75;;;4.00;;
74487;SDS011;63019;51.080;13.642;2023-08-20T04:49:18;8.85;;;4.03;;
74487;SDS011;63019;51.080;13.642;2023-08-20T04:50:20;10.68;;;3.67;;
74487;SDS011;63019;51.080;13.642;2023-08-20T04:51:22;6.75;;;3.58;;
74487;SDS011;63019;51.080;13.642;2023-08-20T04:52:24;6.47;;;3.60;;
74487;SDS011;63019;51.080;13.642;2023-08-20T04:53:26;14.87;;;4.53;;
74487;SDS011;63019;51.080;13.642;2023-08-20T04:54:27;7.88;;;4.13;;
74487;SDS011;63019;51.080;13.642;2023-08-20T04:55:29;11.98;;;4.25;;
74487;SDS011;63019;51.080;13.642;2023-08-20T04:56:31;10.23;;;3.65;;
74487;SDS011;63019;51.080;13.642;2023-08-20T04:57:33;7.10;;;4.00;;
74487;SDS011;63019;51.080;13.642;2023-08-20T04:58:36;9.88;;;4.00;;
74487;SDS011;63019;51.080;13.642;2023-08-20T04:59:37;11.93;;;4.00;;
74487;SDS011;63019;51.080;13.642;2023-08-20T05:00:39;8.20;;;4.05;;
74487;SDS011;63019;51.080;13.642;2023-08-20T05:01:41;7.20;;;4.30;;
74487;SDS011;63019;51.080;13.642;2023-08-20T05:02:43;13.85;;;4.10;;
74487;SDS011;63019;51.080;13.642;2023-08-20T05:03:45;6.23;;;4.03;;
74487;SDS011;63019;51.080;13.642;2023-08-20T05:04:46;11.15;;;4.07;;
74487;SDS011;63019;51.080;13.642;2023-08-20T05:05:50;10.30;;;3.67;;
74487;SDS011;63019;51.080;13.642;2023-08-20T05:06:52;10.15;;;3.78;;
74487;SDS011;63019;51.080;13.642;2023-08-20T05:07:54;9.77;;;4.07;;
74487;SDS011;63019;51.080;13.642;2023-08-20T05:08:56;11.07;;;3.92;;
74487;SDS011;63019;51.080;13.642;2023-08-20T05:09:57;15.05;;;4.00;;
74487;SDS011;63019;51.080;13.642;2023-08-20T05:10:59;14.05;;;4.38;;
74487;SDS011;63019;51.080;13.642;2023-08-20T05:12:02;7.30;;;3.60;;
74487;SDS011;63019;51.080;13.642;2023-08-20T05:13:04;10.43;;;4.20;;
74487;SDS011;63019;51.080;13.642;2023-08-20T05:14:06;8.03;;;3.90;;
74487;SDS011;63019;51.080;13.642;2023-08-20T05:15:08;6.93;;;3.97;;
74487;SDS011;63019;51.080;13.642;2023-08-20T05:16:10;12.57;;;4.05;;
74487;SDS011;63019;51.080;13.642;2023-08-20T05:17:12;6.50;;;3.95;;
74487;SDS011;63019;51.080;13.642;2023-08-20T05:18:14;12.50;;;3.80;;
74487;SDS011;63019;51.080;13.642;2023-08-20T05:19:15;8.57;;;3.90;;
74487;SDS011;63019;51.080;13.642;2023-08-20T05:20:17;8.50;;;4.40;;
74487;SDS011;63019;51.080;13.642;2023-08-20T05:21:19;6.68;;;3.70;;
74487;SDS011;63019;51.080;13.642;2023-08-20T05:22:24;8.00;;;3.90;;
74487;SDS011;63019;51.080;13.642;2023-08-20T05:23:25;5.85;;;3.55;;
74487;SDS011;63019;51.080;13.642;2023-08-20T05:24:27;9.47;;;3.77;;
74487;SDS011;63019;51.080;13.642;2023-08-20T05:25:29;8.98;;;3.70;;
74487;SDS011;63019;51.080;13.642;2023-08-20T05:26:31;9.88;;;4.32;;
74487;SDS011;63019;51.080;13.642;2023-08-20T05:27:33;5.28;;;3.65;;
74487;SDS011;63019;51.080;13.642;2023-08-20T05:28:38;8.00;;;4.10;;
74487;SDS011;63019;51.080;13.642;2023-08-20T05:29:40;9.32;;;4.40;;
74487;SDS011;63019;51.080;13.642;2023-08-20T05:30:42;9.57;;;4.05;;
74487;SDS011;63019;51.080;13.642;2023-08-20T05:31:44;7.25;;;3.70;;
74487;SDS011;63019;51.080;13.642;2023-08-20T05:32:45;10.18;;;3.83;;
74487;SDS011;63019;51.080;13.642;2023-08-20T05:33:47;6.80;;;3.58;;
74487;SDS011;63019;51.080;13.642;2023-08-20T05:34:49;11.77;;;3.80;;
74487;SDS011;63019;51.080;13.642;2023-08-20T05:35:51;7.47;;;3.72;;
74487;SDS011;63019;51.080;13.642;2023-08-20T05:36:53;9.93;;;4.30;;
74487;SDS011;63019;51.080;13.642;2023-08-20T05:37:54;7.72;;;4.18;;
74487;SDS011;63019;51.080;13.642;2023-08-20T05:38:56;12.73;;;4.30;;
74487;SDS011;63019;51.080;13.642;2023-08-20T05:39:58;7.35;;;3.70;;
74487;SDS011;63019;51.080;13.642;2023-08-20T05:41:00;7.70;;;3.70;;
74487;SDS011;63019;51.080;13.642;2023-08-20T05:42:02;6.82;;;3.92;;
74487;SDS011;63019;51.080;13.642;2023-08-20T05:43:04;9.38;;;3.75;;
74487;SDS011;63019;51.080;13.642;2023-08-20T05:44:05;9.98;;;3.80;;
74487;SDS011;63019;51.080;13.642;2023-08-20T05:45:07;10.40;;;3.67;;
74487;SDS011;63019;51.080;13.642;2023-08-20T05:46:10;8.65;;;3.60;;
74487;SDS011;63019;51.080;13.642;2023-08-20T05:47:12;8.95;;;3.90;;
74487;SDS011;63019;51.080;13.642;2023-08-20T05:48:13;7.68;;;4.03;;
74487;SDS011;63019;51.080;13.642;2023-08-20T05:49:15;10.38;;;3.88;;
74487;SDS011;63019;51.080;13.642;2023-08-20T05:50:17;9.63;;;3.92;;
74487;SDS011;63019;51.080;13.642;2023-08-20T05:51:19;5.75;;;3.90;;
74487;SDS011;63019;51.080;13.642;2023-08-20T05:52:20;9.90;;;3.70;;
74487;SDS011;63019;51.080;13.642;2023-08-20T05:53:22;4.57;;;3.40;;
74487;SDS011;63019;51.080;13.642;2023-08-20T05:54:24;9.98;;;3.70;;
74487;SDS011;63019;51.080;13.642;2023-08-20T05:55:26;11.90;;;4.00;;
74487;SDS011;63019;51.080;13.642;2023-08-20T05:56:28;8.68;;;3.78;;
74487;SDS011;63019;51.080;13.642;2023-08-20T05:57:30;6.47;;;3.75;;
74487;SDS011;63019;51.080;13.642;2023-08-20T05:58:31;9.88;;;3.72;;
74487;SDS011;63019;51.080;13.642;2023-08-20T05:59:33;7.22;;;3.70;;
74487;SDS011;63019;51.080;13.642;2023-08-20T06:00:35;10.75;;;4.00;;
74487;SDS011;63019;51.080;13.642;2023-08-20T06:01:37;6.65;;;3.60;;
74487;SDS011;63019;51.080;13.642;2023-08-20T06:02:39;6.43;;;3.60;;
74487;SDS011;63019;51.080;13.642;2023-08-20T06:03:41;11.13;;;4.07;;
74487;SDS011;63019;51.080;13.642;2023-08-20T06:04:42;6.95;;;3.60;;
74487;SDS011;63019;51.080;13.642;2023-08-20T06:05:45;7.77;;;3.87;;
74487;SDS011;63019;51.080;13.642;2023-08-20T06:06:46;10.75;;;3.70;;
74487;SDS011;63019;51.080;13.642;2023-08-20T06:07:48;9.02;;;4.05;;
74487;SDS011;63019;51.080;13.642;2023-08-20T06:08:50;7.38;;;3.83;;
74487;SDS011;63019;51.080;13.642;2023-08-20T06:10:08;10.57;;;3.63;;
74487;SDS011;63019;51.080;13.642;2023-08-20T06:11:10;6.18;;;3.78;;
74487;SDS011;63019;51.080;13.642;2023-08-20T06:12:11;10.57;;;3.95;;
74487;SDS011;63019;51.080;13.642;2023-08-20T06:13:13;6.63;;;4.03;;
74487;SDS011;63019;51.080;13.642;2023-08-20T06:14:15;13.27;;;3.85;;
74487;SDS011;63019;51.080;13.642;2023-08-20T06:15:17;19.80;;;4.20;;
74487;SDS011;63019;51.080;13.642;2023-08-20T06:16:19;6.20;;;3.60;;
74487;SDS011;63019;51.080;13.642;2023-08-20T06:17:21;7.65;;;3.80;;
74487;SDS011;63019;51.080;13.642;2023-08-20T06:18:22;6.32;;;3.50;;